Flight Track Log - Related Links

Times and Time Zones

All times are in EDT time to prevent confusion due to time zone crossing. See the RPA3392 flight status page for this flight to view local times or setup timezone preferences in your user account.

Time Position Orientation Groundspeed Altitude Reporting Facility
EDT Latitude Longitude Course Direction KTS MPH feet Rate Location/Type
12:32AM 38.8167 -77.0333 180° South 214 246 1,300  Level Potomac TRACON
12:33AM 38.7667 -77.0333 180° South 193 222 2,900 2,158 Climbing Potomac TRACON
12:34AM 38.7667 -76.9667 90° East 237 273 5,400 2,284 Climbing Potomac TRACON
12:36AM 38.8861 -76.8292 42° Northeast 272 313 10,400 1,949 Climbing Washington Center
12:37AM 38.9722 -76.7664 30° Northeast 314 361 11,800 1,750 Climbing Washington Center
12:38AM 39.0336 -76.6631 53° Northeast 351 404 13,900 2,115 Climbing Washington Center
12:39AM 39.0703 -76.5300 70° East 358 412 16,100 2,100 Climbing Washington Center
12:40AM 39.1044 -76.3942 72° East 380 437 18,100 1,932 Climbing Washington Center
12:41AM 39.1511 -76.2608 66° East 397 457 19,900 2,100 Climbing Washington Center
12:42AM 39.2289 -76.1436 49° Northeast 420 483 22,300 1,950 Climbing Washington Center
12:43AM 39.3003 -76.0261 52° Northeast 415 478 23,800 1,815 Climbing Washington Center
12:44AM 39.3714 -75.9083 52° Northeast 415 478 25,900 1,525 Climbing Washington Center
12:45AM 39.4425 -75.7878 53° Northeast 415 478 26,900 992 Climbing Washington Center
12:46AM 39.5197 -75.6669 50° Northeast 421 484 27,900 1,475 Climbing Washington Center
12:47AM 39.5947 -75.5378 53° Northeast 433 498 29,800 1,513 Climbing Washington Center
12:48AM 39.6656 -75.4136 53° Northeast 438 504 30,900 595 Climbing Washington Center
12:49AM 39.7422 -75.2839 52° Northeast 445 512 31,000 50 Climbing Washington Center
12:50AM 39.8314 -75.1375 52° Northeast 460 529 31,000  Level Washington Center
12:51AM 39.8617 -75.0817 55° Northeast 470 541 31,000  Level New York Center
12:52AM 39.9372 -74.9508 53° Northeast 480 552 31,000  Level New York Center
12:53AM 40.0356 -74.8214 45° Northeast 496 571 31,000  Level New York Center
12:54AM 40.1314 -74.6992 44° Northeast 496 571 31,000  Level New York Center
12:55AM 40.2425 -74.5561 44° Northeast 490 564 31,000  Level New York Center
12:57AM 40.4831 -74.2517 44° Northeast 497 572 31,000 -600 Level Boston Center
12:58AM 40.5789 -74.1286 44° Northeast 485 558 29,000 -2,150 Descending Boston Center
12:59AM 40.6636 -74.0269 42° Northeast 471 542 26,700 -2,350 Descending Boston Center
01:00AM 40.7547 -73.9114 44° Northeast 456 525 24,300 -1,350 Descending Boston Center
01:01AM 40.8458 -73.7981 43° Northeast 450 518 24,000 -650 Descending Boston Center
01:02AM 40.9494 -73.6683 43° Northeast 450 518 23,000 -550 Descending Boston Center
01:03AM 41.0708 -73.6239 15° North 440 506 22,900  Descending Boston Center
01:04AM 41.2019 -73.6347 356° North 440 506 23,000 50 Climbing Boston Center
01:05AM 41.3331 -73.6508 355° North 447 514 23,000 -150 Level Boston Center
01:06AM 41.4622 -73.6644 355° North 458 527 22,700 -1,400 Descending Boston Center
01:07AM 41.5892 -73.6781 355° North 463 533 20,200 -2,350 Descending Boston Center
01:08AM 41.7119 -73.6914 355° North 452 520 18,000 -2,350 Descending Boston Center
01:09AM 41.8306 -73.7050 355° North 431 496 15,500 -2,250 Descending Boston Center
01:10AM 41.9450 -73.7183 355° North 420 483 13,500 -2,150 Descending Boston Center
01:11AM 42.0556 -73.7292 356° North 405 466 11,200 -1,648 Descending Boston Center
01:11AM 42.1117 -73.7331 357° North 388 447 11,000 -200 Descending Boston Center
01:12AM 42.1553 -73.7367 356° North 394 453 11,000  Level Boston Center
01:13AM 42.2303 -73.7494 353° North 392 451 11,000 -100 Level Boston Center
01:13AM 42.2742 -73.7506 359° North 394 453 10,900 -1,377 Descending Boston Center
01:14AM 42.3447 -73.7631 353° North 384 442 9,600 -1,394 Descending Boston Center
01:15AM 42.4364 -73.7678 358° North 325 374 8,600 -1,289 Descending Boston Center
01:16AM 42.5219 -73.7583 North 295 339 7,000 -1,587 Descending Boston Center
01:17AM 42.6056 -73.7517 North 294 338 5,400 -1,770 Descending Boston Center
01:18AM 42.6825 -73.7422 North 283 326 3,400 -1,438 Descending Boston Center
01:19AM 42.7556 -73.7353 North 258 297 2,500 -843 Descending Boston Center
01:20AM 42.8158 -73.7533 348° North 202 232 1,700 -595 Descending Boston Center
01:21AM 42.8006 -73.8069 249° West 139 160 1,300 -595 Descending Boston Center
01:22AM 42.7653 -73.8061 179° South 106 122 500 -787 Descending Boston Center

Login

Don't have an account? Register now (free) for customized features, flight alerts, and more!